createdAt,value
2023-04-16T00:03:40.957Z,10.19
2023-04-16T00:07:09.012Z,10.17
2023-04-16T00:10:35.780Z,10.18
2023-04-16T00:14:02.847Z,10.21
2023-04-16T00:17:29.660Z,10.23
2023-04-16T00:20:56.685Z,10.26
2023-04-16T00:24:24.239Z,10.28
2023-04-16T00:27:51.131Z,10.30
2023-04-16T00:31:18.262Z,10.31
2023-04-16T00:34:45.019Z,10.32
2023-04-16T00:38:14.823Z,10.31
2023-04-16T00:41:42.710Z,10.29
2023-04-16T00:45:13.912Z,10.28
2023-04-16T00:48:42.132Z,10.23
2023-04-16T00:52:09.423Z,10.17
2023-04-16T00:55:37.332Z,10.11
2023-04-16T00:59:04.746Z,10.07
2023-04-16T01:02:32.964Z,10.01
2023-04-16T01:06:00.741Z,9.98
2023-04-16T01:09:27.695Z,9.96
2023-04-16T01:12:54.504Z,9.93
2023-04-16T01:16:22.584Z,9.94
2023-04-16T01:19:50.011Z,9.95
2023-04-16T01:23:18.826Z,9.98
2023-04-16T01:26:46.117Z,10.01
2023-04-16T01:30:14.308Z,10.03
2023-04-16T01:33:59.342Z,10.05
2023-04-16T01:37:26.089Z,10.08
2023-04-16T01:40:59.765Z,10.11
2023-04-16T01:44:26.764Z,10.12
2023-04-16T01:47:53.944Z,10.14
2023-04-16T01:51:20.499Z,10.14
2023-04-16T01:54:48.607Z,10.11
2023-04-16T01:58:15.621Z,10.08
2023-04-16T02:01:44.505Z,10.04
2023-04-16T02:05:12.120Z,10.01
2023-04-16T02:08:40.147Z,9.97
2023-04-16T02:12:07.596Z,9.94
2023-04-16T02:15:35.111Z,9.91
2023-04-16T02:19:02.607Z,9.88
2023-04-16T02:22:30.596Z,9.90
2023-04-16T02:25:58.318Z,9.91
2023-04-16T02:29:25.710Z,9.91
2023-04-16T02:32:57.437Z,9.93
2023-04-16T02:36:24.767Z,9.96
2023-04-16T02:39:53.191Z,9.97
2023-04-16T02:43:20.196Z,9.99
2023-04-16T02:46:47.666Z,10.02
2023-04-16T02:50:15.187Z,10.05
2023-04-16T02:53:45.750Z,10.05
2023-04-16T02:57:12.985Z,10.03
2023-04-16T03:00:43.917Z,10.02
2023-04-16T03:04:10.869Z,9.99
2023-04-16T03:07:39.566Z,9.97
2023-04-16T03:11:07.774Z,9.92
2023-04-16T03:14:34.826Z,9.87
2023-04-16T03:18:02.689Z,9.82
2023-04-16T03:21:29.426Z,9.79
2023-04-16T03:24:58.918Z,9.75
2023-04-16T03:28:26.159Z,9.75
2023-04-16T03:31:53.443Z,9.77
2023-04-16T03:35:21.925Z,9.80
2023-04-16T03:38:48.945Z,9.80
2023-04-16T03:42:19.285Z,9.80
2023-04-16T03:45:48.784Z,9.82
2023-04-16T03:49:16.952Z,9.82
2023-04-16T03:52:45.031Z,9.80
2023-04-16T03:56:12.283Z,9.82
2023-04-16T03:59:39.178Z,9.83
2023-04-16T04:03:06.416Z,9.84
2023-04-16T04:06:34.181Z,9.80
2023-04-16T04:10:01.532Z,9.73
2023-04-16T04:13:29.037Z,9.66
2023-04-16T04:17:00.129Z,9.62
2023-04-16T04:20:27.471Z,9.59
2023-04-16T04:23:55.634Z,9.56
2023-04-16T04:27:23.448Z,9.57
2023-04-16T04:30:51.118Z,9.58
2023-04-16T04:34:19.409Z,9.60
2023-04-16T04:37:46.224Z,9.59
2023-04-16T04:41:15.987Z,9.61
2023-04-16T04:44:43.212Z,9.64
2023-04-16T04:48:10.842Z,9.69
2023-04-16T04:51:38.473Z,9.71
2023-04-16T04:55:05.992Z,9.75
2023-04-16T04:58:36.495Z,9.77
2023-04-16T05:02:03.899Z,9.79
2023-04-16T05:05:31.146Z,9.82
2023-04-16T05:08:57.989Z,9.79
2023-04-16T05:12:25.055Z,9.75
2023-04-16T05:15:51.859Z,9.71
2023-04-16T05:19:19.463Z,9.68
2023-04-16T05:22:45.962Z,9.65
2023-04-16T05:26:12.292Z,9.64
2023-04-16T05:29:39.045Z,9.62
2023-04-16T05:33:05.597Z,9.64
2023-04-16T05:36:55.059Z,9.66
2023-04-16T05:40:31.121Z,9.72
2023-04-16T05:44:08.552Z,9.79
2023-04-16T05:47:41.017Z,9.82
2023-04-16T05:51:20.768Z,9.85
2023-04-16T05:54:50.701Z,9.88
2023-04-16T05:58:18.620Z,9.91
2023-04-16T06:01:48.362Z,9.94
2023-04-16T06:05:16.084Z,9.98
2023-04-16T06:08:46.288Z,10.01
2023-04-16T06:12:17.934Z,10.02
2023-04-16T06:15:44.993Z,9.98
2023-04-16T06:19:13.246Z,9.95
2023-04-16T06:22:41.239Z,9.93
2023-04-16T06:26:08.662Z,9.93
2023-04-16T06:29:41.222Z,9.92
2023-04-16T06:33:09.028Z,9.89
2023-04-16T06:36:37.930Z,9.88
2023-04-16T06:40:05.062Z,9.88
2023-04-16T06:43:33.800Z,9.89
2023-04-16T06:47:01.147Z,9.92
2023-04-16T06:50:29.315Z,9.93
2023-04-16T06:53:55.910Z,9.97
2023-04-16T06:57:22.681Z,10.00
2023-04-16T07:00:49.107Z,10.03
2023-04-16T07:04:16.728Z,10.08
2023-04-16T07:07:44.086Z,10.13
2023-04-16T07:11:11.025Z,10.17
2023-04-16T07:14:37.939Z,10.19
2023-04-16T07:18:04.701Z,10.21
2023-04-16T07:21:31.998Z,10.20
2023-04-16T07:24:58.701Z,10.14
2023-04-16T07:28:25.583Z,10.09
2023-04-16T07:31:52.974Z,10.06
2023-04-16T07:35:19.861Z,10.01
2023-04-16T07:38:46.326Z,9.97
2023-04-16T07:42:13.132Z,9.97
2023-04-16T07:45:41.356Z,9.96
2023-04-16T07:49:08.676Z,9.96
2023-04-16T07:52:35.485Z,9.98
2023-04-16T07:56:02.176Z,9.98
2023-04-16T07:59:30.143Z,9.98
2023-04-16T08:02:57.941Z,9.99
2023-04-16T08:06:25.314Z,10.02
2023-04-16T08:09:53.946Z,10.09
2023-04-16T08:13:21.196Z,10.17
2023-04-16T08:16:47.858Z,10.21
2023-04-16T08:20:17.598Z,10.24
2023-04-16T08:23:46.126Z,10.27
2023-04-16T08:27:19.393Z,10.26
2023-04-16T08:30:46.038Z,10.26
2023-04-16T08:34:12.830Z,10.21
2023-04-16T08:37:40.051Z,10.19
2023-04-16T08:41:10.987Z,10.20
2023-04-16T08:44:45.976Z,10.17
2023-04-16T08:48:14.939Z,10.16
2023-04-16T08:51:44.790Z,10.19
2023-04-16T08:55:15.587Z,10.23
2023-04-16T08:58:42.904Z,10.28
2023-04-16T09:02:13.209Z,10.35
2023-04-16T09:05:40.868Z,10.39
2023-04-16T09:09:10.566Z,10.46
2023-04-16T09:12:39.004Z,10.51
2023-04-16T09:16:05.851Z,10.58
2023-04-16T09:19:32.692Z,10.69
2023-04-16T09:22:59.434Z,10.76
2023-04-16T09:26:27.559Z,10.80
2023-04-16T09:29:54.093Z,10.86
2023-04-16T09:33:23.520Z,10.89
2023-04-16T09:36:50.745Z,10.91
2023-04-16T09:40:27.987Z,10.94
2023-04-16T09:44:00.530Z,10.95
2023-04-16T09:47:28.448Z,10.94
2023-04-16T09:50:55.076Z,10.96
2023-04-16T09:54:22.796Z,10.96
2023-04-16T09:57:50.021Z,10.98
2023-04-16T10:01:21.031Z,11.01
2023-04-16T10:04:56.698Z,11.09
2023-04-16T10:08:25.719Z,11.17
2023-04-16T10:11:52.819Z,11.26
2023-04-16T10:15:20.043Z,11.34
2023-04-16T10:18:48.360Z,11.44
2023-04-16T10:22:15.577Z,11.53
2023-04-16T10:25:45.226Z,11.58
2023-04-16T10:29:13.265Z,11.63
2023-04-16T10:32:42.191Z,11.69
2023-04-16T10:36:15.581Z,11.75
2023-04-16T10:39:42.269Z,11.81
2023-04-16T10:43:10.143Z,11.83
2023-04-16T10:46:42.044Z,11.87
2023-04-16T10:50:18.808Z,11.87
2023-04-16T10:53:45.687Z,11.94
2023-04-16T10:57:18.090Z,12.04
2023-04-16T11:00:54.241Z,12.07
2023-04-16T11:04:37.631Z,12.08
2023-04-16T11:08:16.916Z,12.09
2023-04-16T11:11:44.730Z,12.13
2023-04-16T11:15:13.914Z,12.22
2023-04-16T11:18:51.031Z,12.27
2023-04-16T11:22:20.433Z,12.29
2023-04-16T11:25:48.245Z,12.27
2023-04-16T11:29:18.551Z,12.22
2023-04-16T11:32:47.438Z,12.20
2023-04-16T11:36:14.478Z,12.14
2023-04-16T11:39:53.273Z,12.06
2023-04-16T11:43:24.779Z,12.00
2023-04-16T11:46:58.549Z,11.95
2023-04-16T11:50:26.494Z,11.89
2023-04-16T11:53:55.175Z,11.87
2023-04-16T11:57:29.942Z,11.84
2023-04-16T12:01:05.193Z,11.81
2023-04-16T12:04:37.592Z,11.76
2023-04-16T12:08:07.269Z,11.69
2023-04-16T12:11:44.890Z,11.69
2023-04-16T12:15:13.370Z,11.71
2023-04-16T12:19:00.106Z,11.70
2023-04-16T12:22:34.696Z,11.67
2023-04-16T12:26:12.543Z,11.63
2023-04-16T12:29:39.708Z,11.65
2023-04-16T12:33:24.260Z,11.65
2023-04-16T12:37:04.791Z,11.61
2023-04-16T12:40:31.647Z,11.57
2023-04-16T12:44:09.195Z,11.54
2023-04-16T12:47:38.557Z,11.49
2023-04-16T12:51:05.501Z,11.45
2023-04-16T12:54:32.776Z,11.41
2023-04-16T12:57:59.818Z,11.37
2023-04-16T13:01:27.153Z,11.36
2023-04-16T13:04:54.789Z,11.36
2023-04-16T13:08:22.973Z,11.38
2023-04-16T13:11:49.533Z,11.41
2023-04-16T13:15:16.653Z,11.40
2023-04-16T13:18:44.100Z,11.41
2023-04-16T13:22:11.598Z,11.37
2023-04-16T13:25:39.101Z,11.35
2023-04-16T13:29:05.903Z,11.31
2023-04-16T13:32:33.009Z,11.24
2023-04-16T13:36:01.440Z,11.18
2023-04-16T13:39:28.895Z,11.15
2023-04-16T13:42:58.425Z,11.07
2023-04-16T13:46:26.760Z,11.00
2023-04-16T13:49:54.911Z,10.96
2023-04-16T13:53:22.363Z,10.93
2023-04-16T13:56:51.547Z,10.91
2023-04-16T14:00:20.612Z,10.89
2023-04-16T14:03:47.573Z,10.90
2023-04-16T14:07:23.024Z,10.92
2023-04-16T14:10:56.388Z,10.93
2023-04-16T14:14:24.690Z,10.97
2023-04-16T14:17:55.181Z,11.01
2023-04-16T14:21:22.399Z,11.01
2023-04-16T14:24:50.405Z,11.00
2023-04-16T14:28:17.757Z,10.99
2023-04-16T14:31:50.588Z,11.00
2023-04-16T14:35:18.174Z,10.97
2023-04-16T14:38:54.141Z,10.94
2023-04-16T14:42:22.892Z,10.88
2023-04-16T14:45:51.345Z,10.85
2023-04-16T14:49:18.238Z,10.82
2023-04-16T14:52:45.275Z,10.78
2023-04-16T14:56:13.143Z,10.77
2023-04-16T14:59:40.046Z,10.79
2023-04-16T15:03:07.213Z,10.81
2023-04-16T15:06:36.005Z,10.84
2023-04-16T15:10:03.186Z,10.85
2023-04-16T15:13:34.117Z,10.88
2023-04-16T15:17:01.190Z,10.93
2023-04-16T15:20:27.930Z,10.97
2023-04-16T15:23:55.521Z,10.96
2023-04-16T15:27:22.453Z,10.94
2023-04-16T15:30:49.001Z,10.95
2023-04-16T15:34:16.385Z,10.94
2023-04-16T15:37:44.469Z,10.92
2023-04-16T15:41:12.170Z,10.87
2023-04-16T15:44:42.226Z,10.81
2023-04-16T15:48:13.075Z,10.78
2023-04-16T15:51:39.955Z,10.74
2023-04-16T15:55:10.897Z,10.70
2023-04-16T15:58:38.975Z,10.67
2023-04-16T16:02:06.388Z,10.67
2023-04-16T16:05:33.175Z,10.68
2023-04-16T16:08:59.938Z,10.70
2023-04-16T16:12:27.549Z,10.70
2023-04-16T16:15:55.343Z,10.73
2023-04-16T16:19:22.335Z,10.76
2023-04-16T16:22:53.192Z,10.76
2023-04-16T16:26:23.163Z,10.77
2023-04-16T16:29:50.987Z,10.76
2023-04-16T16:33:18.929Z,10.70
2023-04-16T16:36:47.033Z,10.67
2023-04-16T16:40:14.497Z,10.65
2023-04-16T16:43:41.237Z,10.59
2023-04-16T16:47:09.136Z,10.56
2023-04-16T16:50:36.414Z,10.50
2023-04-16T16:54:05.231Z,10.46
2023-04-16T16:57:32.296Z,10.44
2023-04-16T17:00:59.807Z,10.43
2023-04-16T17:04:26.659Z,10.46
2023-04-16T17:07:53.652Z,10.48
2023-04-16T17:11:20.301Z,10.50
2023-04-16T17:14:51.168Z,10.51
2023-04-16T17:18:21.763Z,10.53
2023-04-16T17:21:49.338Z,10.51
2023-04-16T17:25:16.959Z,10.51
2023-04-16T17:28:44.086Z,10.49
2023-04-16T17:32:12.010Z,10.47
2023-04-16T17:35:41.378Z,10.43
2023-04-16T17:39:10.558Z,10.39
2023-04-16T17:42:41.508Z,10.32
2023-04-16T17:46:15.324Z,10.24
2023-04-16T17:49:48.220Z,10.17
2023-04-16T17:53:16.364Z,10.12
2023-04-16T17:56:46.304Z,10.09
2023-04-16T18:00:14.987Z,10.05
2023-04-16T18:03:48.439Z,10.02
2023-04-16T18:07:16.109Z,10.02
2023-04-16T18:10:43.939Z,10.03
2023-04-16T18:14:14.346Z,10.02
2023-04-16T18:17:43.326Z,10.00
2023-04-16T18:21:14.896Z,10.01
2023-04-16T18:24:43.647Z,10.00
2023-04-16T18:28:14.044Z,9.98
2023-04-16T18:31:43.046Z,9.90
2023-04-16T18:35:11.900Z,9.81
2023-04-16T18:38:52.982Z,9.77
2023-04-16T18:42:29.912Z,9.71
2023-04-16T18:45:56.968Z,9.65
2023-04-16T18:49:23.813Z,9.60
2023-04-16T18:52:52.014Z,9.56
2023-04-16T18:56:26.134Z,9.55
2023-04-16T18:59:54.673Z,9.54
2023-04-16T19:03:22.891Z,9.52
2023-04-16T19:06:50.247Z,9.54
2023-04-16T19:10:19.073Z,9.56
2023-04-16T19:13:48.564Z,9.57
2023-04-16T19:17:19.687Z,9.57
2023-04-16T19:20:46.663Z,9.56
2023-04-16T19:24:15.144Z,9.58
2023-04-16T19:27:42.137Z,9.57
2023-04-16T19:31:09.990Z,9.54
2023-04-16T19:34:36.723Z,9.51
2023-04-16T19:38:04.068Z,9.46
2023-04-16T19:41:33.295Z,9.39
2023-04-16T19:45:10.286Z,9.33
2023-04-16T19:48:37.392Z,9.27
2023-04-16T19:52:05.931Z,9.22
2023-04-16T19:55:33.142Z,9.17
2023-04-16T19:59:01.006Z,9.15
2023-04-16T20:02:30.157Z,9.12
2023-04-16T20:05:57.245Z,9.13
2023-04-16T20:09:26.751Z,9.15
2023-04-16T20:12:54.413Z,9.19
2023-04-16T20:16:26.232Z,9.19
2023-04-16T20:19:53.456Z,9.19
2023-04-16T20:23:33.191Z,9.20
2023-04-16T20:27:02.311Z,9.20
2023-04-16T20:30:31.176Z,9.21
2023-04-16T20:33:59.157Z,9.19
2023-04-16T20:37:26.741Z,9.18
2023-04-16T20:41:06.524Z,9.15
2023-04-16T20:44:41.291Z,9.13
2023-04-16T20:48:08.927Z,9.10
2023-04-16T20:51:38.420Z,9.11
2023-04-16T20:55:06.114Z,9.08
2023-04-16T20:58:33.736Z,9.04
2023-04-16T21:02:02.055Z,9.03
2023-04-16T21:05:30.408Z,9.03
2023-04-16T21:08:57.813Z,9.05
2023-04-16T21:12:26.360Z,9.05
2023-04-16T21:15:53.743Z,9.06
2023-04-16T21:19:26.628Z,9.07
2023-04-16T21:22:56.961Z,9.06
2023-04-16T21:26:25.796Z,9.06
2023-04-16T21:29:53.988Z,9.03
2023-04-16T21:33:23.301Z,9.00
2023-04-16T21:36:51.350Z,8.99
2023-04-16T21:40:19.551Z,8.93
2023-04-16T21:43:47.381Z,8.89
2023-04-16T21:47:14.693Z,8.85
2023-04-16T21:50:41.919Z,8.81
2023-04-16T21:54:09.026Z,8.78
2023-04-16T21:57:36.388Z,8.76
2023-04-16T22:01:03.396Z,8.74
2023-04-16T22:04:37.223Z,8.73
2023-04-16T22:08:13.768Z,8.76
2023-04-16T22:11:48.390Z,8.79
2023-04-16T22:15:15.730Z,8.82
2023-04-16T22:18:42.943Z,8.85
2023-04-16T22:22:13.501Z,8.89
2023-04-16T22:25:40.886Z,8.86
2023-04-16T22:29:07.869Z,8.87
2023-04-16T22:32:34.531Z,8.87
2023-04-16T22:36:02.376Z,8.84
2023-04-16T22:39:29.895Z,8.82
2023-04-16T22:42:56.595Z,8.79
2023-04-16T22:46:24.989Z,8.76
2023-04-16T22:49:51.530Z,8.72
2023-04-16T22:53:18.459Z,8.67
2023-04-16T22:56:47.119Z,8.60
2023-04-16T23:00:18.196Z,8.55
2023-04-16T23:03:45.487Z,8.52
2023-04-16T23:07:12.228Z,8.45
2023-04-16T23:10:39.033Z,8.44
2023-04-16T23:14:06.338Z,8.45
2023-04-16T23:17:33.876Z,8.46
2023-04-16T23:21:01.005Z,8.47
2023-04-16T23:24:28.197Z,8.48
2023-04-16T23:27:55.255Z,8.48
2023-04-16T23:31:21.731Z,8.48
2023-04-16T23:34:48.363Z,8.49
2023-04-16T23:38:14.865Z,8.52
2023-04-16T23:41:42.229Z,8.49
2023-04-16T23:45:11.261Z,8.38
2023-04-16T23:48:38.056Z,8.32
2023-04-16T23:52:04.813Z,8.27
2023-04-16T23:55:31.531Z,8.23
2023-04-16T23:58:58.200Z,8.19
